National Weather Service Raw Text Product

Displaying AFOS PIL: TAFFOD Received: 2018-03-08 23:39 UTC


793 
FTUS43 KDMX 082339
TAFFOD
TAF
KFOD 082339Z 0900/0924 VRB03KT P6SM SCT020
     FM090600 09004KT P6SM BKN100
     FM091500 10007KT P6SM VCSH BKN040
     FM092200 09006KT P6SM SCT110=